createdAt,value
2022-10-08T00:00:12.439Z,9.30
2022-10-08T00:02:39.582Z,8.90
2022-10-08T00:05:10.282Z,7.82
2022-10-08T00:07:38.359Z,7.47
2022-10-08T00:10:11.631Z,7.57
2022-10-08T00:12:39.574Z,4.28
2022-10-08T00:15:07.545Z,5.18
2022-10-08T00:17:37.566Z,10.57
2022-10-08T00:20:09.920Z,6.03
2022-10-08T00:22:39.735Z,9.23
2022-10-08T00:25:08.485Z,9.80
2022-10-08T00:27:36.474Z,10.73
2022-10-08T00:30:07.645Z,5.82
2022-10-08T00:32:35.076Z,9.57
2022-10-08T00:35:06.513Z,9.00
2022-10-08T00:37:33.754Z,7.53
2022-10-08T00:40:00.840Z,9.73
2022-10-08T00:42:29.001Z,6.93
2022-10-08T00:45:01.390Z,7.13
2022-10-08T00:47:42.209Z,8.82
2022-10-08T00:50:19.667Z,7.60
2022-10-08T00:52:59.751Z,5.25
2022-10-08T00:55:31.113Z,13.32
2022-10-08T00:58:26.361Z,6.05
2022-10-08T01:00:53.956Z,8.60
2022-10-08T01:03:21.519Z,9.15
2022-10-08T01:06:07.334Z,10.02
2022-10-08T01:09:19.435Z,9.25
2022-10-08T01:12:17.935Z,8.55
2022-10-08T01:15:00.690Z,8.45
2022-10-08T01:17:38.807Z,6.15
2022-10-08T01:20:20.138Z,7.18
2022-10-08T01:23:11.521Z,6.90
2022-10-08T01:25:56.630Z,6.88
2022-10-08T01:28:46.090Z,5.82
2022-10-08T01:31:37.285Z,9.40
2022-10-08T01:34:13.883Z,9.75
2022-10-08T01:36:53.252Z,9.07
2022-10-08T01:39:29.857Z,8.57
2022-10-08T01:41:59.764Z,10.25
2022-10-08T01:44:37.151Z,9.63
2022-10-08T01:47:10.184Z,9.07
2022-10-08T01:49:46.074Z,8.30
2022-10-08T01:52:21.277Z,9.98
2022-10-08T01:54:52.414Z,7.80
2022-10-08T01:57:19.775Z,5.93
2022-10-08T01:59:56.571Z,7.15
2022-10-08T02:02:26.151Z,7.32
2022-10-08T02:04:57.311Z,10.80
2022-10-08T02:07:29.292Z,7.53
2022-10-08T02:10:12.715Z,6.22
2022-10-08T02:12:41.241Z,6.30
2022-10-08T02:15:21.292Z,10.75
2022-10-08T02:18:10.712Z,9.63
2022-10-08T02:20:53.093Z,8.02
2022-10-08T02:23:31.211Z,8.93
2022-10-08T02:26:04.334Z,7.82
2022-10-08T02:28:34.692Z,5.90
2022-10-08T02:31:33.512Z,11.05
2022-10-08T02:34:06.324Z,8.48
2022-10-08T02:36:40.051Z,7.60
2022-10-08T02:39:10.285Z,6.35
2022-10-08T02:41:43.471Z,10.70
2022-10-08T02:44:20.100Z,6.32
2022-10-08T02:46:52.997Z,7.45
2022-10-08T02:49:24.380Z,16.00
2022-10-08T02:51:54.336Z,7.97
2022-10-08T02:54:23.946Z,6.18
2022-10-08T02:57:09.415Z,7.28
2022-10-08T02:59:40.466Z,9.15
2022-10-08T03:02:12.656Z,8.85
2022-10-08T03:04:54.289Z,9.77
2022-10-08T03:07:28.950Z,8.48
2022-10-08T03:10:03.516Z,6.68
2022-10-08T03:12:31.782Z,9.82
2022-10-08T03:15:01.595Z,9.20
2022-10-08T03:17:48.494Z,7.00
2022-10-08T03:20:23.841Z,12.90
2022-10-08T03:22:51.006Z,8.13
2022-10-08T03:25:18.778Z,11.77
2022-10-08T03:27:51.727Z,6.90
2022-10-08T03:30:19.142Z,7.22
2022-10-08T03:32:46.836Z,9.00
2022-10-08T03:35:14.240Z,6.20
2022-10-08T03:37:41.865Z,9.05
2022-10-08T03:40:10.001Z,7.88
2022-10-08T03:42:39.212Z,6.97
2022-10-08T03:45:07.062Z,10.55
2022-10-08T03:47:46.155Z,7.95
2022-10-08T03:50:16.255Z,8.13
2022-10-08T03:52:51.855Z,13.15
2022-10-08T03:55:19.295Z,8.48
2022-10-08T03:57:49.429Z,5.93
2022-10-08T04:00:20.022Z,10.32
2022-10-08T04:02:56.132Z,7.93
2022-10-08T04:05:29.056Z,8.68
2022-10-08T04:07:56.215Z,10.35
2022-10-08T04:10:23.647Z,10.93
2022-10-08T04:12:51.168Z,8.07
2022-10-08T04:15:18.484Z,10.23
2022-10-08T04:17:46.047Z,8.63
2022-10-08T04:20:15.972Z,9.02
2022-10-08T04:22:46.270Z,11.52
2022-10-08T04:25:25.587Z,10.40
2022-10-08T04:27:55.122Z,10.05
2022-10-08T04:30:24.150Z,10.40
2022-10-08T04:32:51.375Z,8.45
2022-10-08T04:35:21.216Z,15.80
2022-10-08T04:37:51.768Z,10.02
2022-10-08T04:40:19.409Z,7.22
2022-10-08T04:42:52.296Z,8.73
2022-10-08T04:45:19.829Z,9.38
2022-10-08T04:47:47.129Z,12.02
2022-10-08T04:50:20.399Z,9.88
2022-10-08T04:53:01.781Z,11.13
2022-10-08T04:55:33.507Z,9.25
2022-10-08T04:58:01.291Z,11.77
2022-10-08T05:00:29.334Z,12.02
2022-10-08T05:03:02.377Z,13.57
2022-10-08T05:05:52.511Z,16.10
2022-10-08T05:08:22.884Z,8.98
2022-10-08T05:10:50.435Z,12.60
2022-10-08T05:13:18.170Z,10.90
2022-10-08T05:15:48.781Z,9.65
2022-10-08T05:18:16.383Z,10.48
2022-10-08T05:20:43.506Z,13.70
2022-10-08T05:23:12.927Z,12.88
2022-10-08T05:25:47.981Z,13.30
2022-10-08T05:28:15.453Z,9.15
2022-10-08T05:30:55.370Z,12.82
2022-10-08T05:33:25.328Z,16.63
2022-10-08T05:35:54.017Z,10.75
2022-10-08T05:38:25.449Z,11.60
2022-10-08T05:41:25.420Z,14.15
2022-10-08T05:44:06.562Z,13.98
2022-10-08T05:46:42.459Z,9.43
2022-10-08T05:49:40.045Z,8.85
2022-10-08T05:52:13.306Z,11.43
2022-10-08T05:54:47.086Z,11.35
2022-10-08T05:57:22.128Z,11.68
2022-10-08T05:59:59.507Z,12.15
2022-10-08T06:02:36.161Z,10.77
2022-10-08T06:05:12.735Z,7.65
2022-10-08T06:07:46.245Z,6.57
2022-10-08T06:10:33.909Z,8.43
2022-10-08T06:13:01.975Z,9.00
2022-10-08T06:15:50.193Z,9.02
2022-10-08T06:18:44.750Z,7.10
2022-10-08T06:21:45.732Z,7.95
2022-10-08T06:24:12.786Z,6.35
2022-10-08T06:26:47.301Z,7.32
2022-10-08T06:29:24.093Z,7.93
2022-10-08T06:32:15.159Z,8.38
2022-10-08T06:34:49.561Z,9.90
2022-10-08T06:37:17.038Z,8.35
2022-10-08T06:40:00.432Z,6.13
2022-10-08T06:45:34.900Z,5.93
2022-10-08T06:48:08.774Z,5.78
2022-10-08T06:50:43.727Z,6.45
2022-10-08T06:53:23.220Z,8.55
2022-10-08T06:56:15.329Z,6.07
2022-10-08T06:58:45.384Z,7.15
2022-10-08T07:01:27.873Z,8.23
2022-10-08T07:04:15.406Z,7.43
2022-10-08T07:07:03.800Z,5.00
2022-10-08T07:09:42.747Z,6.47
2022-10-08T07:12:10.552Z,8.57
2022-10-08T07:14:41.295Z,9.77
2022-10-08T07:17:08.872Z,5.78
2022-10-08T07:19:41.981Z,5.20
2022-10-08T07:22:10.003Z,6.15
2022-10-08T07:24:53.075Z,5.82
2022-10-08T07:27:25.897Z,7.57
2022-10-08T07:29:59.040Z,6.85
2022-10-08T07:35:13.450Z,9.52
2022-10-08T07:37:47.782Z,8.45
2022-10-08T07:40:19.990Z,6.68
2022-10-08T07:43:04.585Z,6.93
2022-10-08T07:45:50.502Z,6.22
2022-10-08T07:48:33.878Z,7.32
2022-10-08T07:51:13.552Z,5.00
2022-10-08T07:53:56.713Z,12.75
2022-10-08T07:57:10.937Z,8.73
2022-10-08T07:59:44.625Z,9.00
2022-10-08T08:02:19.443Z,6.97
2022-10-08T08:04:51.233Z,7.53
2022-10-08T08:07:32.193Z,9.55
2022-10-08T08:10:00.981Z,7.80
2022-10-08T08:14:59.512Z,10.00
2022-10-08T08:17:31.580Z,8.20
2022-10-08T08:20:08.601Z,5.15
2022-10-08T08:25:13.462Z,7.85
2022-10-08T08:27:45.931Z,6.75
2022-10-08T08:30:18.298Z,8.23
2022-10-08T08:32:48.094Z,7.63
2022-10-08T08:35:36.762Z,7.10
2022-10-08T08:38:11.082Z,5.43
2022-10-08T08:41:42.259Z,7.82
2022-10-08T08:44:33.822Z,7.82
2022-10-08T08:47:25.261Z,8.80
2022-10-08T08:50:33.764Z,4.43
2022-10-08T08:53:08.814Z,5.28
2022-10-08T08:56:04.870Z,6.93
2022-10-08T08:58:42.236Z,7.03
2022-10-08T09:01:22.197Z,4.60
2022-10-08T09:04:06.383Z,7.45
2022-10-08T09:06:41.299Z,6.90
2022-10-08T09:12:52.119Z,6.80
2022-10-08T09:15:34.988Z,7.60
2022-10-08T09:18:07.987Z,7.85
2022-10-08T09:21:56.034Z,7.00
2022-10-08T09:23:49.694Z,8.20
2022-10-08T09:26:30.287Z,5.78
2022-10-08T09:29:04.120Z,6.07
2022-10-08T09:31:41.268Z,7.45
2022-10-08T09:34:13.379Z,8.23
2022-10-08T09:37:06.642Z,6.32
2022-10-08T09:40:02.260Z,7.15
2022-10-08T09:42:35.331Z,8.55
2022-10-08T09:45:06.752Z,6.05
2022-10-08T09:47:40.445Z,8.23
2022-10-08T09:50:22.450Z,7.32
2022-10-08T09:53:03.196Z,6.97
2022-10-08T09:55:37.613Z,7.85
2022-10-08T09:58:19.177Z,7.40
2022-10-08T10:01:13.843Z,7.38
2022-10-08T10:03:48.854Z,9.38
2022-10-08T10:06:39.191Z,5.90
2022-10-08T10:09:31.311Z,6.38
2022-10-08T10:12:04.514Z,8.98
2022-10-08T10:14:44.331Z,6.70
2022-10-08T10:17:43.216Z,8.15
2022-10-08T10:20:15.684Z,6.63
2022-10-08T10:23:18.912Z,5.20
2022-10-08T10:25:57.790Z,5.43
2022-10-08T10:29:05.656Z,5.30
2022-10-08T10:31:59.076Z,7.03
2022-10-08T10:34:32.555Z,7.93
2022-10-08T10:37:14.054Z,5.38
2022-10-08T10:40:09.199Z,8.57
2022-10-08T10:42:47.097Z,7.63
2022-10-08T10:45:18.141Z,7.40
2022-10-08T10:47:53.641Z,5.90
2022-10-08T10:50:53.207Z,4.72
2022-10-08T10:54:10.120Z,6.15
2022-10-08T10:56:46.859Z,7.15
2022-10-08T10:59:23.809Z,6.25
2022-10-08T11:02:09.902Z,6.40
2022-10-08T11:05:03.233Z,6.05
2022-10-08T11:08:04.275Z,6.72
2022-10-08T11:10:58.115Z,3.83
2022-10-08T11:13:47.083Z,6.70
2022-10-08T11:16:57.302Z,6.30
2022-10-08T11:20:10.003Z,6.85
2022-10-08T11:22:46.385Z,5.35
2022-10-08T11:26:14.014Z,6.32
2022-10-08T11:29:09.886Z,7.25
2022-10-08T11:31:51.243Z,4.75
2022-10-08T11:34:33.581Z,6.93
2022-10-08T11:37:10.007Z,4.28
2022-10-08T11:40:20.571Z,7.25
2022-10-08T11:43:11.922Z,5.72
2022-10-08T11:45:46.215Z,4.70
2022-10-08T11:48:53.760Z,4.95
2022-10-08T11:51:22.572Z,3.30
2022-10-08T11:54:18.108Z,6.50
2022-10-08T11:56:51.967Z,5.25
2022-10-08T11:59:42.053Z,3.90
2022-10-08T12:02:25.263Z,5.78
2022-10-08T12:05:01.993Z,7.65
2022-10-08T12:07:39.352Z,4.72
2022-10-08T12:10:06.737Z,5.97
2022-10-08T12:13:05.522Z,7.63
2022-10-08T12:15:43.660Z,4.05
2022-10-08T12:18:14.090Z,6.47
2022-10-08T12:20:45.814Z,9.10
2022-10-08T12:23:36.509Z,8.60
2022-10-08T12:26:05.531Z,4.60
2022-10-08T12:31:40.617Z,4.70
2022-10-08T12:34:21.669Z,6.40
2022-10-08T12:37:08.119Z,9.18
2022-10-08T12:39:43.602Z,9.88
2022-10-08T12:42:29.866Z,6.50
2022-10-08T12:48:51.930Z,5.72
2022-10-08T12:51:36.808Z,4.15
2022-10-08T12:54:24.039Z,5.15
2022-10-08T12:56:54.906Z,6.25
2022-10-08T12:59:25.306Z,8.13
2022-10-08T13:01:54.440Z,5.47
2022-10-08T13:04:30.073Z,5.25
2022-10-08T13:07:00.467Z,6.13
2022-10-08T13:09:36.170Z,3.72
2022-10-08T13:12:17.001Z,6.75
2022-10-08T13:14:44.270Z,5.95
2022-10-08T13:17:57.453Z,5.88
2022-10-08T13:20:30.066Z,6.03
2022-10-08T13:22:57.183Z,6.45
2022-10-08T13:25:43.596Z,5.50
2022-10-08T13:28:48.353Z,6.63
2022-10-08T13:31:32.672Z,8.95
2022-10-08T13:34:04.343Z,5.97
2022-10-08T13:36:38.098Z,7.47
2022-10-08T13:39:06.523Z,8.07
2022-10-08T13:41:37.317Z,4.65
2022-10-08T13:44:06.792Z,7.70
2022-10-08T13:46:34.488Z,8.43
2022-10-08T13:49:03.359Z,5.45
2022-10-08T13:51:31.579Z,4.97
2022-10-08T13:54:01.261Z,9.25
2022-10-08T13:56:29.065Z,9.60
2022-10-08T13:58:59.796Z,6.60
2022-10-08T14:01:30.446Z,8.05
2022-10-08T14:04:00.709Z,7.30
2022-10-08T14:06:28.245Z,6.25
2022-10-08T14:08:58.822Z,3.90
2022-10-08T14:11:36.037Z,6.97
2022-10-08T14:14:03.877Z,5.88
2022-10-08T14:16:31.940Z,5.85
2022-10-08T14:18:59.465Z,6.68
2022-10-08T14:21:26.868Z,4.43
2022-10-08T14:23:55.023Z,6.00
2022-10-08T14:26:22.345Z,3.88
2022-10-08T14:28:49.757Z,8.68
2022-10-08T14:31:17.464Z,14.55
2022-10-08T14:33:46.155Z,7.03
2022-10-08T14:36:30.476Z,8.52
2022-10-08T14:39:01.065Z,5.72
2022-10-08T14:41:32.977Z,9.25
2022-10-08T14:44:00.542Z,5.45
2022-10-08T14:46:30.932Z,8.07
2022-10-08T14:48:58.547Z,7.50
2022-10-08T14:51:40.806Z,8.65
2022-10-08T14:54:13.460Z,7.38
2022-10-08T14:56:44.095Z,11.93
2022-10-08T14:59:12.106Z,11.25
2022-10-08T15:01:44.617Z,6.68
2022-10-08T15:04:15.081Z,9.90
2022-10-08T15:06:42.819Z,7.18
2022-10-08T15:09:11.973Z,9.57
2022-10-08T15:11:39.925Z,12.48
2022-10-08T15:14:07.955Z,10.82
2022-10-08T15:16:39.804Z,10.88
2022-10-08T15:19:08.380Z,7.05
2022-10-08T15:21:36.466Z,7.35
2022-10-08T15:24:05.230Z,11.23
2022-10-08T15:26:42.164Z,9.40
2022-10-08T15:29:11.342Z,12.73
2022-10-08T15:31:39.197Z,12.15
2022-10-08T15:34:11.207Z,12.32
2022-10-08T15:36:41.333Z,16.83
2022-10-08T15:39:18.125Z,14.50
2022-10-08T15:41:51.547Z,13.93
2022-10-08T15:44:20.645Z,20.27
2022-10-08T15:46:50.021Z,20.25
2022-10-08T15:49:17.214Z,22.85
2022-10-08T15:51:44.400Z,14.57
2022-10-08T15:54:11.960Z,15.82
2022-10-08T15:56:40.428Z,15.25
2022-10-08T15:59:10.870Z,14.18
2022-10-08T16:01:45.234Z,16.83
2022-10-08T16:04:15.856Z,19.92
2022-10-08T16:06:47.115Z,13.90
2022-10-08T16:09:16.276Z,12.60
2022-10-08T16:11:48.434Z,10.55
2022-10-08T16:14:22.741Z,10.30
2022-10-08T16:16:51.265Z,14.50
2022-10-08T16:19:23.262Z,17.52
2022-10-08T16:21:54.222Z,15.45
2022-10-08T16:24:22.345Z,16.20
2022-10-08T16:26:50.205Z,19.20
2022-10-08T16:29:18.841Z,16.00
2022-10-08T16:31:47.693Z,12.55
2022-10-08T16:34:21.369Z,11.43
2022-10-08T16:36:49.461Z,13.70
2022-10-08T16:39:18.772Z,16.55
2022-10-08T16:41:49.555Z,9.95
2022-10-08T16:44:20.923Z,14.10
2022-10-08T16:46:52.699Z,10.90
2022-10-08T16:49:24.513Z,11.80
2022-10-08T16:52:03.660Z,12.30
2022-10-08T16:54:31.595Z,13.02
2022-10-08T16:56:59.324Z,10.02
2022-10-08T16:59:28.720Z,9.55
2022-10-08T17:01:58.295Z,12.65
2022-10-08T17:04:27.974Z,12.05
2022-10-08T17:06:58.630Z,14.73
2022-10-08T17:09:25.842Z,13.68
2022-10-08T17:11:56.438Z,9.73
2022-10-08T17:14:23.921Z,12.13
2022-10-08T17:16:51.169Z,15.30
2022-10-08T17:19:19.083Z,10.60
2022-10-08T17:21:46.726Z,14.05
2022-10-08T17:24:14.857Z,10.23
2022-10-08T17:26:43.774Z,10.63
2022-10-08T17:29:12.895Z,10.98
2022-10-08T17:31:41.496Z,10.32
2022-10-08T17:34:09.674Z,9.98
2022-10-08T17:36:40.035Z,11.77
2022-10-08T17:39:10.962Z,7.82
2022-10-08T17:41:42.153Z,8.98
2022-10-08T17:44:10.430Z,9.48
2022-10-08T17:46:49.096Z,11.43
2022-10-08T17:49:20.375Z,12.57
2022-10-08T17:51:51.403Z,10.18
2022-10-08T17:54:26.047Z,11.85
2022-10-08T17:56:54.979Z,8.32
2022-10-08T17:59:25.580Z,11.38
2022-10-08T18:01:55.607Z,11.15
2022-10-08T18:04:23.018Z,13.73
2022-10-08T18:06:52.797Z,14.50
2022-10-08T18:09:21.832Z,13.85
2022-10-08T18:11:52.277Z,11.15
2022-10-08T18:14:21.808Z,7.88
2022-10-08T18:16:58.667Z,9.30
2022-10-08T18:19:27.052Z,8.82
2022-10-08T18:21:54.431Z,9.85
2022-10-08T18:24:29.732Z,10.48
2022-10-08T18:27:01.279Z,10.27
2022-10-08T18:29:28.637Z,12.57
2022-10-08T18:31:55.609Z,17.40
2022-10-08T18:34:23.277Z,12.25
2022-10-08T18:36:53.731Z,13.98
2022-10-08T18:39:23.706Z,12.48
2022-10-08T18:42:04.642Z,8.90
2022-10-08T18:47:16.037Z,11.52
2022-10-08T18:49:43.753Z,9.63
2022-10-08T18:52:11.041Z,8.40
2022-10-08T18:54:41.872Z,9.57
2022-10-08T18:57:09.077Z,8.77
2022-10-08T18:59:36.867Z,11.75
2022-10-08T19:02:11.728Z,10.15
2022-10-08T19:04:39.179Z,7.13
2022-10-08T19:07:07.969Z,10.05
2022-10-08T19:09:35.104Z,13.63
2022-10-08T19:12:08.371Z,10.35
2022-10-08T19:14:35.890Z,10.93
2022-10-08T19:17:03.118Z,8.45
2022-10-08T19:19:34.359Z,7.00
2022-10-08T19:22:01.925Z,6.88
2022-10-08T19:24:29.390Z,9.95
2022-10-08T19:27:03.001Z,11.05
2022-10-08T19:29:33.856Z,11.95
2022-10-08T19:32:04.077Z,9.95
2022-10-08T19:34:33.833Z,14.00
2022-10-08T19:37:04.224Z,7.75
2022-10-08T19:39:31.642Z,14.65
2022-10-08T19:42:02.519Z,13.15
2022-10-08T19:44:29.672Z,10.13
2022-10-08T19:46:57.448Z,8.25
2022-10-08T19:49:24.733Z,8.55
2022-10-08T19:51:55.071Z,9.63
2022-10-08T19:54:22.463Z,9.95
2022-10-08T19:56:52.690Z,10.40
2022-10-08T19:59:20.214Z,10.30
2022-10-08T20:01:47.527Z,5.90
2022-10-08T20:04:20.769Z,7.75
2022-10-08T20:06:48.228Z,8.13
2022-10-08T20:09:17.391Z,8.60
2022-10-08T20:11:46.618Z,10.35
2022-10-08T20:14:23.031Z,9.68
2022-10-08T20:16:50.815Z,13.20
2022-10-08T20:19:20.947Z,9.50
2022-10-08T20:21:56.340Z,10.18
2022-10-08T20:24:23.793Z,11.52
2022-10-08T20:26:51.142Z,11.65
2022-10-08T20:29:27.432Z,12.73
2022-10-08T20:32:03.552Z,10.70
2022-10-08T20:34:31.830Z,7.63
2022-10-08T20:37:12.888Z,8.95
2022-10-08T20:39:46.799Z,5.53
2022-10-08T20:42:16.781Z,9.57
2022-10-08T20:44:47.659Z,8.10
2022-10-08T20:47:15.750Z,9.88
2022-10-08T20:49:43.090Z,7.90
2022-10-08T20:52:13.776Z,11.23
2022-10-08T20:54:41.293Z,9.05
2022-10-08T20:57:09.022Z,10.98
2022-10-08T20:59:36.799Z,9.38
2022-10-08T21:02:06.472Z,12.85
2022-10-08T21:04:36.144Z,9.27
2022-10-08T21:07:06.011Z,9.38
2022-10-08T21:12:20.540Z,10.30
2022-10-08T21:14:47.983Z,4.72
2022-10-08T21:17:17.926Z,10.45
2022-10-08T21:19:47.915Z,12.35
2022-10-08T21:22:16.128Z,8.10
2022-10-08T21:24:44.195Z,9.80
2022-10-08T21:27:11.353Z,7.95
2022-10-08T21:29:38.643Z,10.60
2022-10-08T21:32:06.426Z,7.10
2022-10-08T21:34:34.057Z,6.20
2022-10-08T21:37:01.322Z,10.88
2022-10-08T21:39:29.036Z,11.32
2022-10-08T21:41:59.642Z,16.08
2022-10-08T21:44:27.104Z,11.88
2022-10-08T21:46:57.135Z,12.32
2022-10-08T21:49:30.743Z,10.85
2022-10-08T21:51:58.426Z,11.25
2022-10-08T21:54:25.609Z,10.93
2022-10-08T21:56:58.946Z,10.90
2022-10-08T21:59:26.918Z,8.35
2022-10-08T22:01:54.538Z,8.35
2022-10-08T22:04:31.278Z,10.25
2022-10-08T22:07:04.758Z,13.85
2022-10-08T22:09:34.816Z,8.10
2022-10-08T22:12:04.782Z,10.05
2022-10-08T22:14:34.638Z,10.88
2022-10-08T22:17:02.207Z,14.35
2022-10-08T22:19:29.830Z,8.40
2022-10-08T22:21:57.453Z,9.90
2022-10-08T22:24:25.229Z,6.70
2022-10-08T22:26:53.231Z,8.57
2022-10-08T22:29:20.830Z,8.25
2022-10-08T22:31:48.343Z,8.32
2022-10-08T22:34:16.723Z,7.72
2022-10-08T22:36:46.018Z,8.15
2022-10-08T22:39:14.836Z,9.13
2022-10-08T22:41:42.526Z,9.45
2022-10-08T22:44:10.672Z,7.03
2022-10-08T22:46:39.714Z,5.75
2022-10-08T22:49:09.289Z,6.50
2022-10-08T22:51:37.053Z,6.13
2022-10-08T22:54:07.350Z,12.43
2022-10-08T22:56:37.878Z,5.57
2022-10-08T22:59:05.338Z,10.27
2022-10-08T23:01:32.621Z,8.52
2022-10-08T23:04:00.492Z,11.23
2022-10-08T23:06:33.698Z,9.27
2022-10-08T23:09:10.690Z,7.80
2022-10-08T23:11:40.809Z,11.40
2022-10-08T23:14:08.251Z,9.52
2022-10-08T23:16:36.002Z,8.27
2022-10-08T23:19:07.542Z,5.93
2022-10-08T23:21:35.696Z,6.53
2022-10-08T23:24:03.738Z,8.20
2022-10-08T23:26:31.669Z,5.45
2022-10-08T23:29:02.545Z,8.95
2022-10-08T23:31:34.668Z,6.00
2022-10-08T23:34:03.865Z,6.13
2022-10-08T23:36:33.967Z,5.85
2022-10-08T23:39:03.878Z,11.13
2022-10-08T23:41:32.434Z,9.32
2022-10-08T23:43:59.805Z,9.63
2022-10-08T23:46:30.001Z,12.40
2022-10-08T23:48:59.599Z,7.03
2022-10-08T23:51:33.803Z,7.15
2022-10-08T23:54:04.032Z,6.22
2022-10-08T23:56:37.591Z,5.43
2022-10-08T23:59:05.050Z,7.18
